createdAt,value
2019-05-19T00:01:24.762Z,14.00
2019-05-19T00:03:54.599Z,13.90
2019-05-19T00:06:24.491Z,14.00
2019-05-19T00:08:54.317Z,13.90
2019-05-19T00:11:24.444Z,13.90
2019-05-19T00:13:55.868Z,13.90
2019-05-19T00:16:25.706Z,13.90
2019-05-19T00:18:55.527Z,13.80
2019-05-19T00:21:25.348Z,13.80
2019-05-19T00:23:55.181Z,13.80
2019-05-19T00:26:25.070Z,13.80
2019-05-19T00:28:55.287Z,13.80
2019-05-19T00:31:25.101Z,13.80
2019-05-19T00:33:54.991Z,13.90
2019-05-19T00:36:24.807Z,13.80
2019-05-19T00:38:54.629Z,13.80
2019-05-19T00:41:24.786Z,13.80
2019-05-19T00:43:54.595Z,13.80
2019-05-19T00:46:25.313Z,13.80
2019-05-19T00:48:56.227Z,13.80
2019-05-19T00:51:26.223Z,13.80
2019-05-19T00:53:56.069Z,13.70
2019-05-19T00:56:26.419Z,13.70
2019-05-19T00:58:58.398Z,13.70
2019-05-19T01:01:28.496Z,13.70
2019-05-19T01:03:59.648Z,13.70
2019-05-19T01:06:29.559Z,13.70
2019-05-19T01:08:59.428Z,13.70
2019-05-19T01:11:29.492Z,13.70
2019-05-19T01:13:59.811Z,13.60
2019-05-19T01:16:29.811Z,13.60
2019-05-19T01:18:59.715Z,13.60
2019-05-19T01:21:30.354Z,13.50
2019-05-19T01:24:00.186Z,13.50
2019-05-19T01:26:30.015Z,13.50
2019-05-19T01:29:00.140Z,13.40
2019-05-19T01:31:30.083Z,13.40
2019-05-19T01:34:00.300Z,13.40
2019-05-19T01:36:30.241Z,13.30
2019-05-19T01:39:00.410Z,13.30
2019-05-19T01:41:30.322Z,13.30
2019-05-19T01:44:00.245Z,13.20
2019-05-19T01:46:30.157Z,13.20
2019-05-19T01:48:59.989Z,13.10
2019-05-19T01:51:29.828Z,13.10
2019-05-19T01:54:00.014Z,13.10
2019-05-19T01:56:30.321Z,13.10
2019-05-19T01:59:00.448Z,13.10
2019-05-19T02:01:30.604Z,13.20
2019-05-19T02:04:00.797Z,13.20
2019-05-19T02:06:31.008Z,13.20
2019-05-19T02:09:01.940Z,13.20
2019-05-19T02:11:32.288Z,13.20
2019-05-19T02:14:03.627Z,13.20
2019-05-19T02:16:33.519Z,13.20
2019-05-19T02:19:03.658Z,13.30
2019-05-19T02:21:33.477Z,13.20
2019-05-19T02:24:03.400Z,13.30
2019-05-19T02:26:34.748Z,13.20
2019-05-19T02:29:04.726Z,13.30
2019-05-19T02:31:34.570Z,13.20
2019-05-19T02:34:04.884Z,13.20
2019-05-19T02:36:35.118Z,13.20
2019-05-19T02:39:07.292Z,13.10
2019-05-19T02:41:39.405Z,13.10
2019-05-19T02:44:09.582Z,13.00
2019-05-19T02:46:41.732Z,13.10
2019-05-19T02:49:14.187Z,13.00
2019-05-19T02:51:46.651Z,12.90
2019-05-19T02:54:17.731Z,12.80
2019-05-19T02:56:48.405Z,12.70
2019-05-19T02:59:20.556Z,12.50
2019-05-19T03:02:04.459Z,12.50
2019-05-19T03:04:34.386Z,12.50
2019-05-19T03:07:04.917Z,12.50
2019-05-19T03:09:34.945Z,12.40
2019-05-19T03:12:04.941Z,12.40
2019-05-19T03:14:34.935Z,12.40
2019-05-19T03:17:04.930Z,12.40
2019-05-19T03:19:34.780Z,12.30
2019-05-19T03:22:05.024Z,12.20
2019-05-19T03:24:34.945Z,12.20
2019-05-19T03:27:05.068Z,12.10
2019-05-19T03:29:36.820Z,12.10
2019-05-19T03:32:20.476Z,12.10
2019-05-19T03:34:50.308Z,12.00
2019-05-19T03:37:20.237Z,11.90
2019-05-19T03:39:50.514Z,11.90
2019-05-19T03:42:20.627Z,12.00
2019-05-19T03:44:50.769Z,12.00
2019-05-19T03:47:20.663Z,12.10
2019-05-19T03:49:50.487Z,12.00
2019-05-19T03:52:20.310Z,12.10
2019-05-19T03:54:50.140Z,12.10
2019-05-19T03:57:19.994Z,12.10
2019-05-19T03:59:49.824Z,12.20
2019-05-19T04:02:19.679Z,12.20
2019-05-19T04:04:49.511Z,12.20
2019-05-19T04:07:19.769Z,12.20
2019-05-19T04:09:49.945Z,12.30
2019-05-19T04:12:19.766Z,12.30
2019-05-19T04:14:49.605Z,12.40
2019-05-19T04:17:19.437Z,12.50
2019-05-19T04:19:49.442Z,12.80
2019-05-19T04:22:19.350Z,13.10
2019-05-19T04:24:49.556Z,13.40
2019-05-19T04:27:19.378Z,13.50
2019-05-19T04:29:49.231Z,13.70
2019-05-19T04:32:23.336Z,13.80
2019-05-19T04:34:53.557Z,13.90
2019-05-19T04:37:23.779Z,14.00
2019-05-19T04:39:53.900Z,14.00
2019-05-19T04:42:23.903Z,14.00
2019-05-19T04:44:53.785Z,14.10
2019-05-19T04:47:23.715Z,14.20
2019-05-19T04:50:01.135Z,14.30
2019-05-19T04:52:31.078Z,14.50
2019-05-19T04:55:01.293Z,14.70
2019-05-19T04:57:31.522Z,14.70
2019-05-19T05:00:01.425Z,14.80
2019-05-19T05:02:31.337Z,14.70
2019-05-19T05:05:01.909Z,14.80
2019-05-19T05:07:32.169Z,14.80
2019-05-19T05:10:02.290Z,14.90
2019-05-19T05:12:32.414Z,15.00
2019-05-19T05:15:02.318Z,15.10
2019-05-19T05:17:32.479Z,15.20
2019-05-19T05:20:02.606Z,15.30
2019-05-19T05:22:32.692Z,15.30
2019-05-19T05:25:02.651Z,15.30
2019-05-19T05:27:32.483Z,15.40
2019-05-19T05:30:02.608Z,15.60
2019-05-19T05:32:32.419Z,16.00
2019-05-19T05:35:02.585Z,16.30
2019-05-19T05:37:32.432Z,16.60
2019-05-19T05:40:02.304Z,16.60
2019-05-19T05:42:32.230Z,16.90
2019-05-19T05:45:02.087Z,17.30
2019-05-19T05:47:31.911Z,17.70
2019-05-19T05:50:01.732Z,18.10
2019-05-19T05:52:38.500Z,18.50
2019-05-19T05:55:03.605Z,18.80
2019-05-19T05:57:33.411Z,18.80
2019-05-19T06:00:05.294Z,18.70
2019-05-19T06:02:35.294Z,18.50
2019-05-19T06:05:06.354Z,18.30
2019-05-19T06:07:36.481Z,18.40
2019-05-19T06:10:08.235Z,18.50
2019-05-19T06:12:39.389Z,18.50
2019-05-19T06:15:09.563Z,18.60
2019-05-19T06:17:39.391Z,19.10
2019-05-19T06:20:09.386Z,19.40
2019-05-19T06:22:54.746Z,20.20
2019-05-19T06:25:11.346Z,20.90
2019-05-19T06:27:41.539Z,20.90
2019-05-19T06:30:11.696Z,21.60
2019-05-19T06:32:46.285Z,21.70
2019-05-19T06:35:16.360Z,21.80
2019-05-19T06:37:46.330Z,22.20
2019-05-19T06:40:16.391Z,22.70
2019-05-19T06:42:46.580Z,23.60
2019-05-19T06:45:16.645Z,24.10
2019-05-19T06:47:46.454Z,24.20
2019-05-19T06:50:16.549Z,25.10
2019-05-19T06:52:46.496Z,25.70
2019-05-19T06:55:16.744Z,26.20
2019-05-19T06:57:46.988Z,26.90
2019-05-19T07:00:18.744Z,27.00
2019-05-19T07:02:48.864Z,26.80
2019-05-19T07:05:20.422Z,26.60
2019-05-19T07:07:50.239Z,26.20
2019-05-19T07:10:20.458Z,26.40
2019-05-19T07:12:50.582Z,26.80
2019-05-19T07:15:20.455Z,27.10
2019-05-19T07:17:50.616Z,27.10
2019-05-19T07:20:20.455Z,25.80
2019-05-19T07:22:50.369Z,26.00
2019-05-19T07:25:20.541Z,25.30
2019-05-19T07:27:50.699Z,25.70
2019-05-19T07:30:20.907Z,25.90
2019-05-19T07:32:51.028Z,25.40
2019-05-19T07:35:20.912Z,25.10
2019-05-19T07:37:50.733Z,24.30
2019-05-19T07:40:20.617Z,23.70
2019-05-19T07:42:50.697Z,23.20
2019-05-19T07:45:21.507Z,22.60
2019-05-19T07:47:51.646Z,21.80
2019-05-19T07:50:21.864Z,22.00
2019-05-19T07:52:51.676Z,22.40
2019-05-19T07:55:21.515Z,22.70
2019-05-19T07:57:51.735Z,22.50
2019-05-19T08:00:21.621Z,23.20
2019-05-19T08:02:51.447Z,23.50
2019-05-19T08:05:21.664Z,24.00
2019-05-19T08:07:51.519Z,24.20
2019-05-19T08:10:22.931Z,25.10
2019-05-19T08:12:52.770Z,25.70
2019-05-19T08:15:23.065Z,25.20
2019-05-19T08:17:53.205Z,25.50
2019-05-19T08:20:23.506Z,26.30
2019-05-19T08:22:53.342Z,26.30
2019-05-19T08:25:23.460Z,26.10
2019-05-19T08:27:53.563Z,26.10
2019-05-19T08:30:23.666Z,26.20
2019-05-19T08:32:53.527Z,26.10
2019-05-19T08:35:23.648Z,25.20
2019-05-19T08:37:53.466Z,24.50
2019-05-19T08:40:23.284Z,24.30
2019-05-19T08:42:53.129Z,23.30
2019-05-19T08:45:23.388Z,23.20
2019-05-19T08:47:53.209Z,23.10
2019-05-19T08:50:23.094Z,23.00
2019-05-19T08:52:53.343Z,22.90
2019-05-19T08:55:23.171Z,23.00
2019-05-19T08:57:53.036Z,23.00
2019-05-19T09:00:23.282Z,23.30
2019-05-19T09:02:53.122Z,23.30
2019-05-19T09:05:22.989Z,23.40
2019-05-19T09:07:52.953Z,23.60
2019-05-19T09:10:22.835Z,23.90
2019-05-19T09:12:52.646Z,24.50
2019-05-19T09:15:22.467Z,24.20
2019-05-19T09:17:54.195Z,24.60
2019-05-19T09:20:23.889Z,24.10
2019-05-19T09:22:54.051Z,24.20
2019-05-19T09:25:23.877Z,24.00
2019-05-19T09:27:53.997Z,23.90
2019-05-19T09:30:24.207Z,24.10
2019-05-19T09:32:54.051Z,24.10
2019-05-19T09:35:23.941Z,24.10
2019-05-19T09:37:53.785Z,24.10
2019-05-19T09:40:26.516Z,24.10
2019-05-19T09:42:55.522Z,24.30
2019-05-19T09:45:25.361Z,24.40
2019-05-19T09:47:55.168Z,24.30
2019-05-19T09:50:26.291Z,24.20
2019-05-19T09:52:56.544Z,24.30
2019-05-19T09:55:26.836Z,24.50
2019-05-19T09:57:56.736Z,24.00
2019-05-19T10:00:26.698Z,24.00
2019-05-19T10:02:56.514Z,24.10
2019-05-19T10:05:26.649Z,24.50
2019-05-19T10:07:56.831Z,25.00
2019-05-19T10:10:32.978Z,26.10
2019-05-19T10:13:03.451Z,26.80
2019-05-19T10:15:33.749Z,27.80
2019-05-19T10:18:03.721Z,28.80
2019-05-19T10:20:33.986Z,29.50
2019-05-19T10:23:03.931Z,30.10
2019-05-19T10:25:34.120Z,29.60
2019-05-19T10:28:04.370Z,30.10
2019-05-19T10:30:34.302Z,28.60
2019-05-19T10:33:04.140Z,28.50
2019-05-19T10:35:34.294Z,26.90
2019-05-19T10:38:04.520Z,26.80
2019-05-19T10:40:34.632Z,26.90
2019-05-19T10:43:04.854Z,26.40
2019-05-19T10:45:34.971Z,25.70
2019-05-19T10:48:04.879Z,26.10
2019-05-19T10:50:35.014Z,26.00
2019-05-19T10:53:05.280Z,26.40
2019-05-19T10:55:37.018Z,25.70
2019-05-19T10:58:07.063Z,25.80
2019-05-19T11:00:37.238Z,26.10
2019-05-19T11:03:07.349Z,26.20
2019-05-19T11:05:37.238Z,25.70
2019-05-19T11:08:07.049Z,25.90
2019-05-19T11:10:36.863Z,26.20
2019-05-19T11:13:06.940Z,25.70
2019-05-19T11:15:36.753Z,25.20
2019-05-19T11:18:06.854Z,24.80
2019-05-19T11:20:36.825Z,24.80
2019-05-19T11:23:06.633Z,24.90
2019-05-19T11:25:50.414Z,25.00
2019-05-19T11:28:09.102Z,24.80
2019-05-19T11:30:39.171Z,25.10
2019-05-19T11:33:09.238Z,25.40
2019-05-19T11:35:39.045Z,24.90
2019-05-19T11:38:08.870Z,25.30
2019-05-19T11:40:38.683Z,25.40
2019-05-19T11:43:08.751Z,25.50
2019-05-19T11:45:38.988Z,25.50
2019-05-19T11:48:09.101Z,25.40
2019-05-19T11:50:42.006Z,25.50
2019-05-19T11:53:11.001Z,25.80
2019-05-19T11:55:41.845Z,26.10
2019-05-19T11:58:13.377Z,26.00
2019-05-19T12:00:44.367Z,25.80
2019-05-19T12:03:15.254Z,25.80
2019-05-19T12:05:45.084Z,25.70
2019-05-19T12:08:15.187Z,25.70
2019-05-19T12:10:45.081Z,25.40
2019-05-19T12:13:14.911Z,25.50
2019-05-19T12:15:44.796Z,25.60
2019-05-19T12:18:14.950Z,25.60
2019-05-19T12:20:44.784Z,25.20
2019-05-19T12:23:14.634Z,25.60
2019-05-19T12:25:44.441Z,25.70
2019-05-19T12:28:14.517Z,25.80
2019-05-19T12:30:44.340Z,26.30
2019-05-19T12:33:14.232Z,26.50
2019-05-19T12:35:44.344Z,26.40
2019-05-19T12:38:14.258Z,26.10
2019-05-19T12:40:44.428Z,25.80
2019-05-19T12:43:14.253Z,25.60
2019-05-19T12:45:44.195Z,25.60
2019-05-19T12:48:14.196Z,25.50
2019-05-19T12:50:44.023Z,25.40
2019-05-19T12:53:14.211Z,25.40
2019-05-19T12:55:44.331Z,25.20
2019-05-19T12:58:14.177Z,25.30
2019-05-19T13:00:44.080Z,25.00
2019-05-19T13:03:15.811Z,25.30
2019-05-19T13:05:45.934Z,25.30
2019-05-19T13:08:15.753Z,25.50
2019-05-19T13:10:46.069Z,25.50
2019-05-19T13:13:15.901Z,25.50
2019-05-19T13:15:45.907Z,25.60
2019-05-19T13:18:22.403Z,25.80
2019-05-19T13:20:53.619Z,25.70
2019-05-19T13:23:23.745Z,25.50
2019-05-19T13:25:54.265Z,25.40
2019-05-19T13:28:24.375Z,25.60
2019-05-19T13:30:54.303Z,26.00
2019-05-19T13:33:24.722Z,26.10
2019-05-19T13:35:54.717Z,26.10
2019-05-19T13:38:24.561Z,25.80
2019-05-19T13:40:54.417Z,25.90
2019-05-19T13:43:26.491Z,25.70
2019-05-19T13:45:55.846Z,25.30
2019-05-19T13:48:25.701Z,25.30
2019-05-19T13:50:55.791Z,25.50
2019-05-19T13:53:26.237Z,25.70
2019-05-19T13:55:56.332Z,25.40
2019-05-19T13:58:26.262Z,25.50
2019-05-19T14:00:56.351Z,25.60
2019-05-19T14:03:26.418Z,25.60
2019-05-19T14:05:56.827Z,25.50
2019-05-19T14:08:27.019Z,25.50
2019-05-19T14:10:57.150Z,25.00
2019-05-19T14:13:27.380Z,24.60
2019-05-19T14:15:57.279Z,24.20
2019-05-19T14:18:27.098Z,24.20
2019-05-19T14:20:56.940Z,24.20
2019-05-19T14:23:26.791Z,24.20
2019-05-19T14:25:56.623Z,24.40
2019-05-19T14:28:26.786Z,24.70
2019-05-19T14:30:58.113Z,25.00
2019-05-19T14:33:27.919Z,24.90
2019-05-19T14:35:58.036Z,25.10
2019-05-19T14:38:28.179Z,24.90
2019-05-19T14:40:58.274Z,24.80
2019-05-19T14:43:33.060Z,24.80
2019-05-19T14:46:02.098Z,24.50
2019-05-19T14:48:32.039Z,24.40
2019-05-19T14:51:01.969Z,24.20
2019-05-19T14:53:33.412Z,24.20
2019-05-19T14:56:03.288Z,24.20
2019-05-19T14:58:33.126Z,24.10
2019-05-19T15:01:02.979Z,24.00
2019-05-19T15:03:32.882Z,24.10
2019-05-19T15:06:03.070Z,24.10
2019-05-19T15:08:32.958Z,23.60
2019-05-19T15:11:02.796Z,22.60
2019-05-19T15:13:33.014Z,22.00
2019-05-19T15:16:03.351Z,21.30
2019-05-19T15:18:33.560Z,21.00
2019-05-19T15:21:03.387Z,21.10
2019-05-19T15:23:33.538Z,20.90
2019-05-19T15:26:03.453Z,20.60
2019-05-19T15:28:33.328Z,20.60
2019-05-19T15:31:03.158Z,20.10
2019-05-19T15:33:38.085Z,20.20
2019-05-19T15:36:06.344Z,20.10
2019-05-19T15:38:36.504Z,20.10
2019-05-19T15:41:06.313Z,19.80
2019-05-19T15:43:36.187Z,19.70
2019-05-19T15:46:06.520Z,19.60
2019-05-19T15:48:36.410Z,19.70
2019-05-19T15:51:06.547Z,19.80
2019-05-19T15:53:36.434Z,19.70
2019-05-19T15:56:06.808Z,19.70
2019-05-19T15:58:36.691Z,19.80
2019-05-19T16:01:06.939Z,19.70
2019-05-19T16:03:37.153Z,19.40
2019-05-19T16:06:07.064Z,19.10
2019-05-19T16:08:36.951Z,18.90
2019-05-19T16:11:07.130Z,18.90
2019-05-19T16:13:37.317Z,18.60
2019-05-19T16:16:07.122Z,18.30
2019-05-19T16:18:37.352Z,18.20
2019-05-19T16:21:07.588Z,18.10
2019-05-19T16:23:37.703Z,18.10
2019-05-19T16:26:07.820Z,18.10
2019-05-19T16:28:37.954Z,18.10
2019-05-19T16:31:08.172Z,18.20
2019-05-19T16:33:38.315Z,18.10
2019-05-19T16:36:08.166Z,18.20
2019-05-19T16:38:38.099Z,18.30
2019-05-19T16:41:08.241Z,18.20
2019-05-19T16:43:38.184Z,18.20
2019-05-19T16:46:08.035Z,18.20
2019-05-19T16:48:38.207Z,18.10
2019-05-19T16:51:08.526Z,18.20
2019-05-19T16:53:38.936Z,18.20
2019-05-19T16:56:09.202Z,18.10
2019-05-19T16:58:45.386Z,18.00
2019-05-19T17:01:10.632Z,17.90
2019-05-19T17:03:40.933Z,17.60
2019-05-19T17:06:11.271Z,17.40
2019-05-19T17:08:41.522Z,17.40
2019-05-19T17:11:18.384Z,17.60
2019-05-19T17:13:43.129Z,17.50
2019-05-19T17:16:13.512Z,17.50
2019-05-19T17:18:43.621Z,17.60
2019-05-19T17:21:13.423Z,17.60
2019-05-19T17:23:43.557Z,17.60
2019-05-19T17:26:13.369Z,17.60
2019-05-19T17:28:43.178Z,17.50
2019-05-19T17:31:12.991Z,17.60
2019-05-19T17:33:42.807Z,17.60
2019-05-19T17:36:12.628Z,17.60
2019-05-19T17:38:42.489Z,17.70
2019-05-19T17:41:12.381Z,17.60
2019-05-19T17:43:42.464Z,17.50
2019-05-19T17:46:12.295Z,17.50
2019-05-19T17:48:42.107Z,17.40
2019-05-19T17:51:11.934Z,17.30
2019-05-19T17:53:42.649Z,17.30
2019-05-19T17:56:13.773Z,17.20
2019-05-19T17:58:44.066Z,17.00
2019-05-19T18:01:14.230Z,16.80
2019-05-19T18:03:45.068Z,16.80
2019-05-19T18:06:15.308Z,16.70
2019-05-19T18:08:45.625Z,16.70
2019-05-19T18:11:15.488Z,16.70
2019-05-19T18:13:45.425Z,16.70
2019-05-19T18:16:15.263Z,16.60
2019-05-19T18:18:45.643Z,16.60
2019-05-19T18:21:15.728Z,16.50
2019-05-19T18:23:46.038Z,16.50
2019-05-19T18:26:16.083Z,16.50
2019-05-19T18:28:46.440Z,16.50
2019-05-19T18:31:16.315Z,16.40
2019-05-19T18:33:50.064Z,16.40
2019-05-19T18:36:20.228Z,16.40
2019-05-19T18:38:50.538Z,16.40
2019-05-19T18:41:20.685Z,16.30
2019-05-19T18:43:50.807Z,16.30
2019-05-19T18:46:21.037Z,16.30
2019-05-19T18:48:50.883Z,16.30
2019-05-19T18:51:20.693Z,16.30
2019-05-19T18:53:50.801Z,16.30
2019-05-19T18:56:20.619Z,16.30
2019-05-19T18:58:50.461Z,16.30
2019-05-19T19:01:20.338Z,16.20
2019-05-19T19:03:52.277Z,16.20
2019-05-19T19:06:22.211Z,16.20
2019-05-19T19:08:52.047Z,16.20
2019-05-19T19:11:22.145Z,16.10
2019-05-19T19:13:52.385Z,16.10
2019-05-19T19:16:22.222Z,16.10
2019-05-19T19:18:52.074Z,16.00
2019-05-19T19:21:22.330Z,16.00
2019-05-19T19:23:52.239Z,16.00
2019-05-19T19:26:22.095Z,16.00
2019-05-19T19:28:52.054Z,16.00
2019-05-19T19:31:22.187Z,16.00
2019-05-19T19:33:52.045Z,16.00
2019-05-19T19:36:21.891Z,16.00
2019-05-19T19:38:51.712Z,15.90
2019-05-19T19:41:21.938Z,15.90
2019-05-19T19:43:52.097Z,15.90
2019-05-19T19:46:21.988Z,15.90
2019-05-19T19:48:52.596Z,15.80
2019-05-19T19:51:22.419Z,15.80
2019-05-19T19:53:52.629Z,15.80
2019-05-19T19:56:22.543Z,15.70
2019-05-19T19:58:52.354Z,15.70
2019-05-19T20:01:22.183Z,15.60
2019-05-19T20:03:52.017Z,15.60
2019-05-19T20:06:21.911Z,15.60
2019-05-19T20:08:51.753Z,15.50
2019-05-19T20:11:21.938Z,15.50
2019-05-19T20:13:51.769Z,15.50
2019-05-19T20:16:21.604Z,15.50
2019-05-19T20:18:51.783Z,15.40
2019-05-19T20:21:21.908Z,15.40
2019-05-19T20:23:51.799Z,15.40
2019-05-19T20:26:21.730Z,15.30
2019-05-19T20:28:51.956Z,15.30
2019-05-19T20:31:22.074Z,15.20
2019-05-19T20:33:52.209Z,15.10
2019-05-19T20:36:22.064Z,15.00
2019-05-19T20:38:51.928Z,14.90
2019-05-19T20:41:23.181Z,14.80
2019-05-19T20:43:53.019Z,14.70
2019-05-19T20:46:22.837Z,14.60
2019-05-19T20:48:52.926Z,14.50
2019-05-19T20:51:23.165Z,14.50
2019-05-19T20:53:53.472Z,14.40
2019-05-19T20:56:23.320Z,14.40
2019-05-19T20:58:53.407Z,14.30
2019-05-19T21:01:23.511Z,14.20
2019-05-19T21:03:54.662Z,14.10
2019-05-19T21:06:24.487Z,14.00
2019-05-19T21:08:54.302Z,13.90
2019-05-19T21:11:24.142Z,13.90
2019-05-19T21:13:54.225Z,13.90
2019-05-19T21:16:24.287Z,13.80
2019-05-19T21:19:11.362Z,13.70
2019-05-19T21:21:41.189Z,13.70
2019-05-19T21:24:11.076Z,13.70
2019-05-19T21:26:41.206Z,13.60
2019-05-19T21:29:11.020Z,13.50
2019-05-19T21:31:41.142Z,13.40
2019-05-19T21:34:11.018Z,13.30
2019-05-19T21:36:40.891Z,13.20
2019-05-19T21:39:10.999Z,13.10
2019-05-19T21:41:41.306Z,13.10
2019-05-19T21:44:11.435Z,13.00
2019-05-19T21:46:41.267Z,12.90
2019-05-19T21:49:11.364Z,12.90
2019-05-19T21:51:41.583Z,12.80
2019-05-19T21:54:11.407Z,12.70
2019-05-19T21:56:41.235Z,12.70
2019-05-19T21:59:11.537Z,12.80
2019-05-19T22:01:41.351Z,12.80
2019-05-19T22:04:11.173Z,12.70
2019-05-19T22:06:42.903Z,12.60
2019-05-19T22:09:12.731Z,12.50
2019-05-19T22:11:42.559Z,12.40
2019-05-19T22:14:12.687Z,12.30
2019-05-19T22:16:42.618Z,12.40
2019-05-19T22:19:15.780Z,12.40
2019-05-19T22:21:44.340Z,12.30
2019-05-19T22:24:14.480Z,12.40
2019-05-19T22:26:44.757Z,12.30
2019-05-19T22:29:15.019Z,12.20
2019-05-19T22:31:45.157Z,12.10
2019-05-19T22:34:15.283Z,11.90
2019-05-19T22:36:45.109Z,12.10
2019-05-19T22:39:14.938Z,12.00
2019-05-19T22:41:44.744Z,11.90
2019-05-19T22:44:14.825Z,11.90
2019-05-19T22:46:44.638Z,11.80
2019-05-19T22:49:14.855Z,11.80
2019-05-19T22:51:44.700Z,11.70
2019-05-19T22:54:14.902Z,11.60
2019-05-19T22:56:44.730Z,11.60
2019-05-19T22:59:19.809Z,11.60
2019-05-19T23:01:51.678Z,11.60
2019-05-19T23:04:17.580Z,11.70
2019-05-19T23:06:47.407Z,11.70
2019-05-19T23:09:17.303Z,11.70
2019-05-19T23:11:47.133Z,11.70
2019-05-19T23:14:17.022Z,11.70
2019-05-19T23:16:46.917Z,11.80
2019-05-19T23:19:16.730Z,11.80
2019-05-19T23:21:46.563Z,11.90
2019-05-19T23:24:16.649Z,11.90
2019-05-19T23:26:46.461Z,11.90
2019-05-19T23:29:16.577Z,11.70
2019-05-19T23:31:46.461Z,11.70
2019-05-19T23:34:16.608Z,11.60
2019-05-19T23:36:47.855Z,11.60
2019-05-19T23:39:18.096Z,11.60
2019-05-19T23:41:48.177Z,11.60
2019-05-19T23:44:18.318Z,11.60
2019-05-19T23:46:48.143Z,11.50
2019-05-19T23:49:18.256Z,11.60
2019-05-19T23:51:48.369Z,11.60
2019-05-19T23:54:18.613Z,11.60
2019-05-19T23:56:48.712Z,11.60
2019-05-19T23:59:18.832Z,11.50
